createdAt,value
2022-08-29T00:00:18.575Z,21.37
2022-08-29T00:02:49.349Z,21.36
2022-08-29T00:05:18.655Z,21.34
2022-08-29T00:07:47.507Z,21.32
2022-08-29T00:10:17.069Z,21.29
2022-08-29T00:12:47.025Z,21.27
2022-08-29T00:15:16.615Z,21.26
2022-08-29T00:17:45.395Z,21.23
2022-08-29T00:20:18.608Z,21.19
2022-08-29T00:22:47.420Z,21.17
2022-08-29T00:25:17.061Z,21.15
2022-08-29T00:27:49.862Z,21.14
2022-08-29T00:30:20.555Z,21.14
2022-08-29T00:32:48.973Z,21.13
2022-08-29T00:35:22.042Z,21.09
2022-08-29T00:37:51.586Z,21.09
2022-08-29T00:40:24.766Z,21.06
2022-08-29T00:42:54.817Z,21.06
2022-08-29T00:45:24.488Z,21.05
2022-08-29T00:47:57.015Z,21.02
2022-08-29T00:50:37.011Z,21.00
2022-08-29T00:53:08.004Z,20.98
2022-08-29T00:55:38.763Z,20.96
2022-08-29T00:58:18.255Z,20.94
2022-08-29T01:00:47.586Z,20.92
2022-08-29T01:03:15.897Z,20.90
2022-08-29T01:05:44.226Z,20.88
2022-08-29T01:08:12.894Z,20.84
2022-08-29T01:10:59.046Z,20.82
2022-08-29T01:13:36.074Z,20.77
2022-08-29T01:16:06.767Z,20.76
2022-08-29T01:18:38.053Z,20.75
2022-08-29T01:21:17.344Z,20.73
2022-08-29T01:23:53.368Z,20.72
2022-08-29T01:26:24.149Z,20.70
2022-08-29T01:28:53.804Z,20.69
2022-08-29T01:31:37.723Z,20.69
2022-08-29T01:34:14.534Z,20.66
2022-08-29T01:36:50.347Z,20.66
2022-08-29T01:39:19.443Z,20.67
2022-08-29T01:41:50.136Z,20.67
2022-08-29T01:44:21.801Z,20.65
2022-08-29T01:46:56.810Z,20.64
2022-08-29T01:49:28.119Z,20.63
2022-08-29T01:51:56.477Z,20.64
2022-08-29T01:54:24.731Z,20.63
2022-08-29T01:56:55.650Z,20.62
2022-08-29T01:59:28.355Z,20.62
2022-08-29T02:02:02.664Z,20.63
2022-08-29T02:04:31.531Z,20.62
2022-08-29T02:07:00.343Z,20.64
2022-08-29T02:09:29.671Z,20.61
2022-08-29T02:12:01.723Z,20.64
2022-08-29T02:14:31.463Z,20.65
2022-08-29T02:16:59.791Z,20.65
2022-08-29T02:19:28.447Z,20.66
2022-08-29T02:21:57.204Z,20.66
2022-08-29T02:24:26.452Z,20.67
2022-08-29T02:26:56.395Z,20.68
2022-08-29T02:29:30.821Z,20.67
2022-08-29T02:32:07.116Z,20.69
2022-08-29T02:34:37.044Z,20.69
2022-08-29T02:37:06.008Z,20.74
2022-08-29T02:39:35.165Z,20.75
2022-08-29T02:42:03.826Z,20.77
2022-08-29T02:44:33.874Z,20.78
2022-08-29T02:47:02.349Z,20.78
2022-08-29T02:49:30.700Z,20.78
2022-08-29T02:51:59.525Z,20.80
2022-08-29T02:54:27.911Z,20.82
2022-08-29T02:56:56.204Z,20.82
2022-08-29T02:59:24.529Z,20.84
2022-08-29T03:01:54.647Z,20.84
2022-08-29T03:04:23.066Z,20.86
2022-08-29T03:06:51.353Z,20.88
2022-08-29T03:09:19.679Z,20.89
2022-08-29T03:11:47.997Z,20.92
2022-08-29T03:14:16.276Z,20.94
2022-08-29T03:16:44.685Z,20.93
2022-08-29T03:19:14.522Z,20.94
2022-08-29T03:21:44.991Z,20.96
2022-08-29T03:24:13.377Z,20.96
2022-08-29T03:26:41.684Z,20.97
2022-08-29T03:29:09.990Z,20.98
2022-08-29T03:31:38.469Z,20.98
2022-08-29T03:34:06.974Z,21.00
2022-08-29T03:36:36.699Z,21.01
2022-08-29T03:39:05.283Z,21.01
2022-08-29T03:41:34.716Z,21.02
2022-08-29T03:44:03.289Z,21.01
2022-08-29T03:46:31.661Z,21.02
2022-08-29T03:49:00.081Z,21.01
2022-08-29T03:51:29.295Z,21.01
2022-08-29T03:53:59.761Z,21.03
2022-08-29T03:56:28.893Z,21.03
2022-08-29T03:58:58.458Z,21.04
2022-08-29T04:01:29.682Z,21.03
2022-08-29T04:03:59.213Z,21.04
2022-08-29T04:06:29.350Z,21.07
2022-08-29T04:08:59.136Z,21.06
2022-08-29T04:11:29.855Z,21.08
2022-08-29T04:13:58.194Z,21.09
2022-08-29T04:16:31.024Z,21.10
2022-08-29T04:19:00.109Z,21.12
2022-08-29T04:21:29.127Z,21.13
2022-08-29T04:23:58.864Z,21.15
2022-08-29T04:26:36.459Z,21.16
2022-08-29T04:29:06.980Z,21.17
2022-08-29T04:31:36.579Z,21.17
2022-08-29T04:34:06.639Z,21.18
2022-08-29T04:36:35.630Z,21.19
2022-08-29T04:39:06.816Z,21.19
2022-08-29T04:41:36.784Z,21.21
2022-08-29T04:44:06.435Z,21.19
2022-08-29T04:46:35.322Z,21.23
2022-08-29T04:49:04.650Z,21.23
2022-08-29T04:51:34.385Z,21.24
2022-08-29T04:54:05.110Z,21.23
2022-08-29T04:56:34.594Z,21.23
2022-08-29T04:59:03.519Z,21.25
2022-08-29T05:01:32.022Z,21.27
2022-08-29T05:04:00.791Z,21.27
2022-08-29T05:06:29.320Z,21.28
2022-08-29T05:08:59.313Z,21.29
2022-08-29T05:11:32.441Z,21.30
2022-08-29T05:14:02.526Z,21.30
2022-08-29T05:16:31.859Z,21.31
2022-08-29T05:19:00.770Z,21.30
2022-08-29T05:21:34.940Z,21.32
2022-08-29T05:24:05.729Z,21.33
2022-08-29T05:26:38.934Z,21.33
2022-08-29T05:29:10.825Z,21.33
2022-08-29T05:31:41.114Z,21.33
2022-08-29T05:34:14.054Z,21.35
2022-08-29T05:36:59.005Z,21.35
2022-08-29T05:39:27.508Z,21.36
2022-08-29T05:41:58.444Z,21.38
2022-08-29T05:44:34.233Z,21.40
2022-08-29T05:47:04.442Z,21.43
2022-08-29T05:49:32.908Z,21.43
2022-08-29T05:52:01.495Z,21.46
2022-08-29T05:54:30.331Z,21.45
2022-08-29T05:57:00.115Z,21.44
2022-08-29T05:59:28.532Z,21.43
2022-08-29T06:01:57.053Z,21.43
2022-08-29T06:04:25.464Z,21.44
2022-08-29T06:06:53.787Z,21.46
2022-08-29T06:09:22.132Z,21.43
2022-08-29T06:11:53.216Z,21.46
2022-08-29T06:14:22.965Z,21.47
2022-08-29T06:16:51.359Z,21.46
2022-08-29T06:19:19.742Z,21.49
2022-08-29T06:21:48.520Z,21.51
2022-08-29T06:24:17.407Z,21.50
2022-08-29T06:26:46.180Z,21.52
2022-08-29T06:29:16.071Z,21.50
2022-08-29T06:31:45.804Z,21.54
2022-08-29T06:34:14.318Z,21.55
2022-08-29T06:36:42.917Z,21.55
2022-08-29T06:39:12.712Z,21.58
2022-08-29T06:41:42.654Z,21.58
2022-08-29T06:44:11.617Z,21.61
2022-08-29T06:46:43.102Z,21.62
2022-08-29T06:49:15.870Z,21.65
2022-08-29T06:51:49.125Z,21.67
2022-08-29T06:54:19.364Z,21.69
2022-08-29T06:56:47.998Z,21.73
2022-08-29T06:59:16.601Z,21.74
2022-08-29T07:01:45.611Z,21.76
2022-08-29T07:04:16.053Z,21.77
2022-08-29T07:06:49.817Z,21.78
2022-08-29T07:09:18.705Z,21.81
2022-08-29T07:11:47.027Z,21.84
2022-08-29T07:14:15.544Z,21.85
2022-08-29T07:16:44.102Z,21.87
2022-08-29T07:19:13.901Z,21.88
2022-08-29T07:21:42.230Z,21.89
2022-08-29T07:24:10.861Z,21.89
2022-08-29T07:26:43.739Z,21.88
2022-08-29T07:29:15.261Z,21.88
2022-08-29T07:31:44.118Z,21.86
2022-08-29T07:34:14.686Z,21.87
2022-08-29T07:36:43.168Z,21.90
2022-08-29T07:39:15.398Z,21.91
2022-08-29T07:41:45.411Z,21.92
2022-08-29T07:44:15.034Z,21.92
2022-08-29T07:46:44.216Z,21.93
2022-08-29T07:49:14.319Z,21.93
2022-08-29T07:51:44.416Z,21.91
2022-08-29T07:54:16.548Z,21.92
2022-08-29T07:56:44.882Z,21.93
2022-08-29T07:59:13.815Z,21.94
2022-08-29T08:01:42.280Z,21.98
2022-08-29T08:04:12.222Z,21.98
2022-08-29T08:06:44.954Z,22.00
2022-08-29T08:09:15.285Z,22.02
2022-08-29T08:11:44.019Z,22.04
2022-08-29T08:14:13.051Z,22.06
2022-08-29T08:16:44.328Z,22.07
2022-08-29T08:19:13.721Z,22.09
2022-08-29T08:21:49.620Z,22.11
2022-08-29T08:24:19.905Z,22.13
2022-08-29T08:26:48.865Z,22.16
2022-08-29T08:29:17.844Z,22.20
2022-08-29T08:31:46.907Z,22.22
2022-08-29T08:34:15.757Z,22.23
2022-08-29T08:36:46.481Z,22.25
2022-08-29T08:39:15.569Z,22.27
2022-08-29T08:41:54.703Z,22.30
2022-08-29T08:45:00.599Z,22.30
2022-08-29T08:47:34.017Z,22.33
2022-08-29T08:50:07.847Z,22.36
2022-08-29T08:52:45.399Z,22.38
2022-08-29T08:55:28.277Z,22.41
2022-08-29T08:58:06.094Z,22.42
2022-08-29T09:00:45.412Z,22.44
2022-08-29T09:03:46.676Z,22.47
2022-08-29T09:06:26.794Z,22.47
2022-08-29T09:09:10.326Z,22.50
2022-08-29T09:11:55.352Z,22.51
2022-08-29T09:14:39.596Z,22.53
2022-08-29T09:17:15.252Z,22.55
2022-08-29T09:19:44.075Z,22.58
2022-08-29T09:22:19.031Z,22.58
2022-08-29T09:24:54.908Z,22.60
2022-08-29T09:27:26.001Z,22.61
2022-08-29T09:30:00.770Z,22.63
2022-08-29T09:32:29.308Z,22.64
2022-08-29T09:35:08.617Z,22.68
2022-08-29T09:37:38.709Z,22.70
2022-08-29T09:40:16.695Z,22.71
2022-08-29T09:43:01.413Z,22.75
2022-08-29T09:45:29.940Z,22.78
2022-08-29T09:48:14.380Z,22.78
2022-08-29T09:50:43.411Z,22.82
2022-08-29T09:53:23.819Z,22.85
2022-08-29T09:55:55.234Z,22.88
2022-08-29T09:58:37.569Z,22.90
2022-08-29T10:01:11.795Z,22.93
2022-08-29T10:03:44.561Z,22.97
2022-08-29T10:06:17.854Z,23.02
2022-08-29T10:09:00.981Z,23.06
2022-08-29T10:11:38.468Z,23.11
2022-08-29T10:14:12.775Z,23.17
2022-08-29T10:17:20.485Z,23.24
2022-08-29T10:19:49.793Z,23.30
2022-08-29T10:22:37.353Z,23.34
2022-08-29T10:25:11.924Z,23.40
2022-08-29T10:27:46.871Z,23.45
2022-08-29T10:30:19.650Z,23.52
2022-08-29T10:33:09.609Z,23.56
2022-08-29T10:35:47.676Z,23.62
2022-08-29T10:38:30.975Z,23.64
2022-08-29T10:41:08.523Z,23.71
2022-08-29T10:43:43.141Z,23.77
2022-08-29T10:46:37.070Z,23.84
2022-08-29T10:49:18.220Z,23.92
2022-08-29T10:51:57.467Z,23.94
2022-08-29T10:54:37.508Z,24.06
2022-08-29T10:57:08.716Z,24.24
2022-08-29T10:59:57.089Z,24.44
2022-08-29T11:02:35.213Z,24.67
2022-08-29T11:05:11.021Z,24.91
2022-08-29T11:07:45.295Z,25.04
2022-08-29T11:10:20.404Z,25.14
2022-08-29T11:12:55.449Z,25.26
2022-08-29T11:15:29.259Z,25.42
2022-08-29T11:18:10.165Z,25.62
2022-08-29T11:20:45.320Z,25.84
2022-08-29T11:23:27.789Z,26.07
2022-08-29T11:25:58.005Z,26.36
2022-08-29T11:28:36.206Z,26.55
2022-08-29T11:31:13.937Z,26.66
2022-08-29T11:33:53.119Z,26.79
2022-08-29T11:36:44.130Z,26.90
2022-08-29T11:39:44.022Z,26.98
2022-08-29T11:42:49.736Z,27.10
2022-08-29T11:45:09.154Z,27.21
2022-08-29T11:47:58.968Z,27.29
2022-08-29T11:50:34.038Z,27.42
2022-08-29T11:53:16.586Z,27.55
2022-08-29T11:56:23.527Z,27.72
2022-08-29T11:58:59.642Z,27.91
2022-08-29T12:02:00.771Z,28.09
2022-08-29T12:04:54.812Z,28.26
2022-08-29T12:07:36.104Z,28.44
2022-08-29T12:10:09.476Z,28.64
2022-08-29T12:12:45.288Z,28.81
2022-08-29T12:15:55.763Z,29.01
2022-08-29T12:18:45.195Z,29.15
2022-08-29T12:21:48.717Z,29.28
2022-08-29T12:24:41.801Z,29.41
2022-08-29T12:27:41.850Z,29.54
2022-08-29T12:30:11.274Z,29.68
2022-08-29T12:32:57.149Z,29.76
2022-08-29T12:36:03.113Z,29.90
2022-08-29T12:38:50.197Z,29.97
2022-08-29T12:41:42.639Z,30.09
2022-08-29T12:44:16.632Z,30.16
2022-08-29T12:46:49.627Z,30.23
2022-08-29T12:49:25.385Z,30.33
2022-08-29T12:51:58.494Z,30.40
2022-08-29T12:54:34.809Z,30.49
2022-08-29T12:57:05.179Z,30.58
2022-08-29T12:59:35.189Z,30.66
2022-08-29T13:02:03.882Z,30.70
2022-08-29T13:04:35.205Z,30.70
2022-08-29T13:07:07.155Z,30.70
2022-08-29T13:09:42.205Z,30.70
2022-08-29T13:12:16.623Z,30.73
2022-08-29T13:15:01.194Z,30.76
2022-08-29T13:17:34.734Z,30.80
2022-08-29T13:20:46.262Z,30.85
2022-08-29T13:23:29.637Z,30.89
2022-08-29T13:26:05.653Z,30.95
2022-08-29T13:28:44.060Z,31.00
2022-08-29T13:31:33.136Z,31.01
2022-08-29T13:34:21.958Z,30.99
2022-08-29T13:37:00.084Z,30.97
2022-08-29T13:39:41.634Z,30.96
2022-08-29T13:42:35.340Z,30.90
2022-08-29T13:45:15.526Z,30.86
2022-08-29T13:48:14.550Z,30.82
2022-08-29T13:50:42.915Z,30.85
2022-08-29T13:53:11.408Z,30.85
2022-08-29T13:55:43.338Z,30.86
2022-08-29T13:58:15.043Z,30.90
2022-08-29T14:00:44.093Z,30.94
2022-08-29T14:03:14.791Z,30.96
2022-08-29T14:05:43.618Z,30.95
2022-08-29T14:08:13.434Z,30.94
2022-08-29T14:10:42.533Z,30.95
2022-08-29T14:13:12.383Z,30.96
2022-08-29T14:15:40.837Z,30.96
2022-08-29T14:18:09.391Z,30.99
2022-08-29T14:20:39.029Z,30.98
2022-08-29T14:23:07.416Z,30.95
2022-08-29T14:25:35.781Z,30.94
2022-08-29T14:28:04.781Z,30.91
2022-08-29T14:30:34.496Z,30.90
2022-08-29T14:33:02.841Z,30.90
2022-08-29T14:35:32.135Z,30.88
2022-08-29T14:38:02.360Z,30.93
2022-08-29T14:40:32.256Z,30.91
2022-08-29T14:43:02.401Z,30.94
2022-08-29T14:45:33.995Z,30.93
2022-08-29T14:48:02.392Z,30.92
2022-08-29T14:50:31.092Z,30.91
2022-08-29T14:52:59.418Z,30.89
2022-08-29T14:55:28.035Z,30.86
2022-08-29T14:57:56.457Z,30.82
2022-08-29T15:00:29.569Z,30.78
2022-08-29T15:03:00.005Z,30.76
2022-08-29T15:05:28.718Z,30.76
2022-08-29T15:07:57.385Z,30.75
2022-08-29T15:10:27.062Z,30.76
2022-08-29T15:12:55.531Z,30.74
2022-08-29T15:15:29.154Z,30.76
2022-08-29T15:18:01.292Z,30.74
2022-08-29T15:20:36.135Z,30.75
2022-08-29T15:23:05.964Z,30.75
2022-08-29T15:25:34.474Z,30.77
2022-08-29T15:28:03.110Z,30.80
2022-08-29T15:30:31.377Z,30.82
2022-08-29T15:33:01.051Z,30.83
2022-08-29T15:35:29.535Z,30.85
2022-08-29T15:37:58.147Z,30.86
2022-08-29T15:40:27.069Z,30.88
2022-08-29T15:42:55.465Z,30.89
2022-08-29T15:45:23.902Z,30.91
2022-08-29T15:47:53.927Z,30.91
2022-08-29T15:50:24.456Z,30.92
2022-08-29T15:52:53.302Z,30.91
2022-08-29T15:55:21.895Z,30.92
2022-08-29T15:57:52.672Z,30.91
2022-08-29T16:00:30.054Z,30.88
2022-08-29T16:03:02.610Z,30.87
2022-08-29T16:05:33.822Z,30.82
2022-08-29T16:08:02.861Z,30.79
2022-08-29T16:10:31.692Z,30.74
2022-08-29T16:13:00.463Z,30.66
2022-08-29T16:15:31.151Z,30.56
2022-08-29T16:18:00.518Z,30.48
2022-08-29T16:20:31.332Z,30.39
2022-08-29T16:23:00.475Z,30.30
2022-08-29T16:25:29.656Z,30.21
2022-08-29T16:27:58.526Z,30.11
2022-08-29T16:30:30.198Z,30.02
2022-08-29T16:32:58.974Z,29.94
2022-08-29T16:35:27.775Z,29.84
2022-08-29T16:38:02.802Z,29.76
2022-08-29T16:40:32.610Z,29.69
2022-08-29T16:43:02.008Z,29.61
2022-08-29T16:45:32.313Z,29.54
2022-08-29T16:48:00.964Z,29.47
2022-08-29T16:50:30.949Z,29.39
2022-08-29T16:53:01.808Z,29.31
2022-08-29T16:55:31.075Z,29.24
2022-08-29T16:58:22.316Z,29.16
2022-08-29T17:00:52.071Z,29.05
2022-08-29T17:03:20.524Z,28.97
2022-08-29T17:05:49.903Z,28.89
2022-08-29T17:08:18.674Z,28.81
2022-08-29T17:10:46.396Z,28.73
2022-08-29T17:13:13.630Z,28.68
2022-08-29T17:15:41.236Z,28.61
2022-08-29T17:18:10.027Z,28.53
2022-08-29T17:20:38.481Z,28.46
2022-08-29T17:23:10.489Z,28.39
2022-08-29T17:25:40.584Z,28.32
2022-08-29T17:28:18.570Z,28.24
2022-08-29T17:30:48.966Z,28.16
2022-08-29T17:33:17.785Z,28.09
2022-08-29T17:35:46.433Z,28.02
2022-08-29T17:38:15.629Z,27.95
2022-08-29T17:40:46.238Z,27.86
2022-08-29T17:43:18.340Z,27.78
2022-08-29T17:45:47.172Z,27.70
2022-08-29T17:48:15.753Z,27.60
2022-08-29T17:50:44.517Z,27.52
2022-08-29T17:53:12.988Z,27.43
2022-08-29T17:55:41.655Z,27.34
2022-08-29T17:58:11.536Z,27.25
2022-08-29T18:00:40.341Z,27.17
2022-08-29T18:03:08.828Z,27.09
2022-08-29T18:05:37.937Z,27.00
2022-08-29T18:08:07.436Z,26.91
2022-08-29T18:10:37.231Z,26.83
2022-08-29T18:13:06.013Z,26.75
2022-08-29T18:15:35.795Z,26.64
2022-08-29T18:18:06.196Z,26.56
2022-08-29T18:20:34.761Z,26.48
2022-08-29T18:23:03.215Z,26.41
2022-08-29T18:25:31.918Z,26.34
2022-08-29T18:28:00.453Z,26.26
2022-08-29T18:30:28.913Z,26.19
2022-08-29T18:32:58.635Z,26.13
2022-08-29T18:35:26.963Z,26.05
2022-08-29T18:37:55.301Z,26.01
2022-08-29T18:40:24.553Z,25.96
2022-08-29T18:42:53.296Z,25.91
2022-08-29T18:45:21.707Z,25.85
2022-08-29T18:47:50.256Z,25.80
2022-08-29T18:50:35.288Z,25.74
2022-08-29T18:53:07.917Z,25.64
2022-08-29T18:55:36.532Z,25.61
2022-08-29T18:58:05.465Z,25.55
2022-08-29T19:00:34.226Z,25.50
2022-08-29T19:03:04.560Z,25.44
2022-08-29T19:05:36.670Z,25.38
2022-08-29T19:08:05.934Z,25.32
2022-08-29T19:10:35.300Z,25.29
2022-08-29T19:13:07.640Z,25.24
2022-08-29T19:15:41.350Z,25.18
2022-08-29T19:18:11.657Z,25.12
2022-08-29T19:20:59.945Z,25.04
2022-08-29T19:23:28.342Z,24.95
2022-08-29T19:25:56.811Z,24.92
2022-08-29T19:28:25.646Z,24.89
2022-08-29T19:30:54.616Z,24.83
2022-08-29T19:33:23.038Z,24.76
2022-08-29T19:35:53.734Z,24.71
2022-08-29T19:38:23.895Z,24.65
2022-08-29T19:40:56.439Z,24.60
2022-08-29T19:43:27.427Z,24.52
2022-08-29T19:45:57.470Z,24.46
2022-08-29T19:48:28.015Z,24.39
2022-08-29T19:50:58.134Z,24.32
2022-08-29T19:53:27.171Z,24.27
2022-08-29T19:55:56.934Z,24.23
2022-08-29T19:58:31.589Z,24.13
2022-08-29T20:01:02.639Z,24.08
2022-08-29T20:03:32.566Z,24.05
2022-08-29T20:06:07.591Z,23.98
2022-08-29T20:08:36.944Z,23.93
2022-08-29T20:11:06.568Z,23.83
2022-08-29T20:13:36.317Z,23.80
2022-08-29T20:16:13.961Z,23.72
2022-08-29T20:18:47.127Z,23.68
2022-08-29T20:21:20.779Z,23.63
2022-08-29T20:23:57.103Z,23.58
2022-08-29T20:26:29.426Z,23.53
2022-08-29T20:28:58.377Z,23.47
2022-08-29T20:31:27.831Z,23.44
2022-08-29T20:33:56.356Z,23.39
2022-08-29T20:36:44.940Z,23.34
2022-08-29T20:39:16.934Z,23.28
2022-08-29T20:41:50.077Z,23.23
2022-08-29T20:44:20.410Z,23.19
2022-08-29T20:46:50.400Z,23.13
2022-08-29T20:49:22.863Z,23.09
2022-08-29T20:51:53.650Z,23.04
2022-08-29T20:54:24.556Z,23.00
2022-08-29T20:56:54.166Z,22.96
2022-08-29T20:59:26.548Z,22.90
2022-08-29T21:01:56.544Z,22.84
2022-08-29T21:04:42.468Z,22.79
2022-08-29T21:07:15.343Z,22.70
2022-08-29T21:09:45.969Z,22.69
2022-08-29T21:12:15.666Z,22.65
2022-08-29T21:14:44.596Z,22.61
2022-08-29T21:17:15.067Z,22.57
2022-08-29T21:19:44.054Z,22.54
2022-08-29T21:22:15.186Z,22.52
2022-08-29T21:24:44.020Z,22.49
2022-08-29T21:27:12.436Z,22.45
2022-08-29T21:29:42.475Z,22.41
2022-08-29T21:32:10.795Z,22.37
2022-08-29T21:34:39.089Z,22.33
2022-08-29T21:37:07.507Z,22.29
2022-08-29T21:39:37.216Z,22.24
2022-08-29T21:42:06.714Z,22.22
2022-08-29T21:44:35.619Z,22.16
2022-08-29T21:47:04.394Z,22.14
2022-08-29T21:49:32.956Z,22.10
2022-08-29T21:52:02.198Z,22.04
2022-08-29T21:54:30.628Z,22.03
2022-08-29T21:57:00.386Z,21.99
2022-08-29T21:59:28.911Z,21.95
2022-08-29T22:01:57.453Z,21.92
2022-08-29T22:04:28.625Z,21.87
2022-08-29T22:06:59.438Z,21.85
2022-08-29T22:09:28.927Z,21.83
2022-08-29T22:11:57.422Z,21.79
2022-08-29T22:14:42.154Z,21.76
2022-08-29T22:17:10.473Z,21.74
2022-08-29T22:19:39.501Z,21.71
2022-08-29T22:22:10.248Z,21.68
2022-08-29T22:24:38.693Z,21.65
2022-08-29T22:27:07.481Z,21.62
2022-08-29T22:29:37.509Z,21.57
2022-08-29T22:32:06.469Z,21.56
2022-08-29T22:34:34.893Z,21.52
2022-08-29T22:37:03.291Z,21.50
2022-08-29T22:39:31.732Z,21.47
2022-08-29T22:42:00.126Z,21.44
2022-08-29T22:47:20.232Z,21.39
2022-08-29T22:49:48.630Z,21.37
2022-08-29T22:52:16.987Z,21.34
2022-08-29T22:54:45.352Z,21.34
2022-08-29T22:57:18.136Z,21.32
2022-08-29T22:59:48.716Z,21.30
2022-08-29T23:02:20.575Z,21.29
2022-08-29T23:04:51.954Z,21.26
2022-08-29T23:07:21.137Z,21.23
2022-08-29T23:09:50.685Z,21.20
2022-08-29T23:12:19.613Z,21.16
2022-08-29T23:14:48.360Z,21.15
2022-08-29T23:17:19.964Z,21.13
2022-08-29T23:19:49.416Z,21.10
2022-08-29T23:22:18.328Z,21.09
2022-08-29T23:24:53.879Z,21.06
2022-08-29T23:27:27.901Z,21.04
2022-08-29T23:29:56.581Z,21.01
2022-08-29T23:32:26.809Z,20.98
2022-08-29T23:34:55.814Z,20.98
2022-08-29T23:37:24.379Z,20.93
2022-08-29T23:39:52.794Z,20.89
2022-08-29T23:42:21.180Z,20.87
2022-08-29T23:44:49.744Z,20.84
2022-08-29T23:47:18.795Z,20.83
2022-08-29T23:49:48.616Z,20.80
2022-08-29T23:52:16.997Z,20.77
2022-08-29T23:54:45.391Z,20.74
2022-08-29T23:57:13.762Z,20.70
2022-08-29T23:59:59.613Z,20.66
